^^
Meteo Knjazevac Station Historical Data
Daily Summary for January 2, 2022 Units:  Both    English   Metric
Daily Weekly Monthly Yearly Custom
  High: Low: Average:
Temperature: 88.5 °F /  31.4 °C 53.1 °F /  11.7 °C 73.1 °F /  22.8 °C
Dew Point: 65 °F /  18.3 °C 51.6 °F /  10.9 °C 59.3 °F /  15.2 °C
Humidity: 96% 43% 66%
Wind Speed: 8mph /  12.9km/h - 2.1mph /  3.4km/h
Wind Gust: 15mph /  24.1km/h - -
Wind- - SSW
Pressure: 30.05 in /  1017.5 hPa 29.98 in /  1015.1 hPa -
Precipitation: 0.00 in /  0 mm    
Historical Graphs
 
 
Tabular Data for January 2, 2022
Time Temperature Dew Point Pressure Wind Wind Speed Wind Gust Humidity Rainfall Rate (Hourly) solar Conditions
00:00 61 °F /  16.1 °C 56.1 °F /  13.4 °C 30.02in /  1016.5hPa WNW 1mph /  1.6km/h 3mph /  4.8km/h 84% 0.00in /  0mm 0 W/m2
00:10 60.6 °F /  15.9 °C 55.8 °F /  13.2 °C 30.02in /  1016.5hPa Calm   3mph /  4.8km/h 84% 0.00in /  0mm 0 W/m2
00:20 60.8 °F /  16 °C 55.6 °F /  13.1 °C 30.01in /  1016.1hPa Calm   4mph /  6.4km/h 83% 0.00in /  0mm 0 W/m2
00:40 60.2 °F /  15.7 °C 55.7 °F /  13.2 °C 30.01in /  1016.1hPa West 1mph /  1.6km/h 2mph /  3.2km/h 85% 0.00in /  0mm 0 W/m2
00:50 59.5 °F /  15.3 °C 55.3 °F /  12.9 °C 30.01in /  1016.1hPa Calm   2mph /  3.2km/h 86% 0.00in /  0mm 0 W/m2
01:10 59 °F /  15 °C 55.4 °F /  13 °C 30.01in /  1016.1hPa Calm   1mph /  1.6km/h 88% 0.00in /  0mm 0 W/m2
01:20 58.6 °F /  14.8 °C 55.1 °F /  12.8 °C 30.01in /  1016.1hPa Calm   2mph /  3.2km/h 88% 0.00in /  0mm 0 W/m2
01:30 58.3 °F /  14.6 °C 55.1 °F /  12.8 °C 30.01in /  1016.1hPa Calm   2mph /  3.2km/h 89% 0.00in /  0mm 0 W/m2
01:40 58.2 °F /  14.6 °C 55 °F /  12.8 °C 30.01in /  1016.1hPa NW 1mph /  1.6km/h 2mph /  3.2km/h 89% 0.00in /  0mm 0 W/m2
01:50 57.7 °F /  14.3 °C 54.5 °F /  12.5 °C 30.01in /  1016.1hPa Calm   2mph /  3.2km/h 89% 0.00in /  0mm 0 W/m2
02:00 57.4 °F /  14.1 °C 54.2 °F /  12.3 °C 30.01in /  1016.1hPa Calm   2mph /  3.2km/h 89% 0.00in /  0mm 0 W/m2
02:10 57 °F /  13.9 °C 54.1 °F /  12.3 °C 30.01in /  1016.1hPa Calm   2mph /  3.2km/h 90% 0.00in /  0mm 0 W/m2
02:20 56.8 °F /  13.8 °C 53.9 °F /  12.2 °C 30.01in /  1016.1hPa North 2mph /  3.2km/h 2mph /  3.2km/h 90% 0.00in /  0mm 0 W/m2
02:30 56.7 °F /  13.7 °C 53.8 °F /  12.1 °C 30.01in /  1016.1hPa Calm   2mph /  3.2km/h 90% 0.00in /  0mm 0 W/m2
02:40 56.4 °F /  13.6 °C 53.5 °F /  11.9 °C 30.01in /  1016.1hPa Calm   2mph /  3.2km/h 90% 0.00in /  0mm 0 W/m2
02:50 55.9 °F /  13.3 °C 53.3 °F /  11.8 °C 30.01in /  1016.1hPa West 1mph /  1.6km/h 3mph /  4.8km/h 91% 0.00in /  0mm 0 W/m2
03:00 55.5 °F /  13.1 °C 52.9 °F /  11.6 °C 30.01in /  1016.1hPa West 1mph /  1.6km/h 3mph /  4.8km/h 91% 0.00in /  0mm 0 W/m2
03:10 55.1 °F /  12.8 °C 53.2 °F /  11.8 °C 30.01in /  1016.1hPa NW 1mph /  1.6km/h 4mph /  6.4km/h 93% 0.00in /  0mm 0 W/m2
03:20 55 °F /  12.8 °C 53 °F /  11.7 °C 30.01in /  1016.1hPa Calm   3mph /  4.8km/h 93% 0.00in /  0mm 0 W/m2
03:30 54.9 °F /  12.7 °C 53.2 °F /  11.8 °C 30.01in /  1016.1hPa WNW 1mph /  1.6km/h 2mph /  3.2km/h 94% 0.00in /  0mm 0 W/m2
03:50 54.5 °F /  12.5 °C 52.8 °F /  11.6 °C 30.01in /  1016.1hPa WNW 1mph /  1.6km/h 3mph /  4.8km/h 94% 0.00in /  0mm 0 W/m2
04:10 54.5 °F /  12.5 °C 52.8 °F /  11.6 °C 30.01in /  1016.1hPa Calm   4mph /  6.4km/h 94% 0.00in /  0mm 0 W/m2
04:20 54.5 °F /  12.5 °C 52.8 °F /  11.6 °C 30.01in /  1016.1hPa Calm   2mph /  3.2km/h 94% 0.00in /  0mm 0 W/m2
04:30 54.2 °F /  12.3 °C 52.5 °F /  11.4 °C 30.01in /  1016.1hPa NW 1mph /  1.6km/h 2mph /  3.2km/h 94% 0.00in /  0mm 0 W/m2
04:40 54.1 °F /  12.3 °C 52.4 °F /  11.3 °C 30.01in /  1016.1hPa Calm   1mph /  1.6km/h 94% 0.00in /  0mm 0 W/m2
04:50 54.1 °F /  12.3 °C 52.7 °F /  11.5 °C 30.01in /  1016.1hPa Calm   2mph /  3.2km/h 95% 0.00in /  0mm 0 W/m2
05:00 54 °F /  12.2 °C 52.3 °F /  11.3 °C 30.01in /  1016.1hPa WNW 1mph /  1.6km/h 3mph /  4.8km/h 94% 0.00in /  0mm 0 W/m2
05:50 53.2 °F /  11.8 °C 51.6 °F /  10.9 °C 30.02in /  1016.5hPa Calm   2mph /  3.2km/h 94% 0.00in /  0mm 21 W/m2
06:00 53.1 °F /  11.7 °C 51.7 °F /  10.9 °C 30.02in /  1016.5hPa Calm   2mph /  3.2km/h 95% 0.00in /  0mm 27 W/m2
06:10 53.1 °F /  11.7 °C 51.7 °F /  10.9 °C 30.03in /  1016.8hPa NW 1mph /  1.6km/h 2mph /  3.2km/h 95% 0.00in /  0mm 65 W/m2
06:20 53.1 °F /  11.7 °C 51.7 °F /  10.9 °C 30.03in /  1016.8hPa Calm   1mph /  1.6km/h 95% 0.00in /  0mm 87 W/m2
06:30 53.1 °F /  11.7 °C 52 °F /  11.1 °C 30.04in /  1017.2hPa Calm   2mph /  3.2km/h 96% 0.00in /  0mm 112 W/m2
06:40 53.2 °F /  11.8 °C 52.1 °F /  11.2 °C 30.04in /  1017.2hPa Calm   1mph /  1.6km/h 96% 0.00in /  0mm 137 W/m2
06:50 53.4 °F /  11.9 °C 52.3 °F /  11.3 °C 30.04in /  1017.2hPa Calm   2mph /  3.2km/h 96% 0.00in /  0mm 165 W/m2
07:00 54 °F /  12.2 °C 52.8 °F /  11.6 °C 30.04in /  1017.2hPa Calm   2mph /  3.2km/h 96% 0.00in /  0mm 194 W/m2
07:10 54.7 °F /  12.6 °C 53.6 °F /  12 °C 30.04in /  1017.2hPa Calm   2mph /  3.2km/h 96% 0.00in /  0mm 225 W/m2
07:30 56.8 °F /  13.8 °C 54.8 °F /  12.7 °C 30.04in /  1017.2hPa Calm   5mph /  8km/h 93% 0.00in /  0mm 296 W/m2
07:50 59.3 °F /  15.2 °C 55.7 °F /  13.2 °C 30.04in /  1017.2hPa Calm   2mph /  3.2km/h 88% 0.00in /  0mm 361 W/m2
08:00 60 °F /  15.6 °C 56.4 °F /  13.6 °C 30.04in /  1017.2hPa WNW 1mph /  1.6km/h 2mph /  3.2km/h 88% 0.00in /  0mm 399 W/m2
08:10 61.8 °F /  16.6 °C 57.2 °F /  14 °C 30.04in /  1017.2hPa SSW 1mph /  1.6km/h 2mph /  3.2km/h 85% 0.00in /  0mm 438 W/m2
08:20 63.1 °F /  17.3 °C 57.8 °F /  14.3 °C 30.05in /  1017.5hPa Calm   2mph /  3.2km/h 83% 0.00in /  0mm 481 W/m2
08:30 64.3 °F /  17.9 °C 58.7 °F /  14.8 °C 30.05in /  1017.5hPa WNW 1mph /  1.6km/h 2mph /  3.2km/h 82% 0.00in /  0mm 517 W/m2
08:40 67.3 °F /  19.6 °C 59.5 °F /  15.3 °C 30.05in /  1017.5hPa WNW 1mph /  1.6km/h 2mph /  3.2km/h 76% 0.00in /  0mm 546 W/m2
08:50 69.7 °F /  20.9 °C 60.3 °F /  15.7 °C 30.05in /  1017.5hPa WSW 2mph /  3.2km/h 4mph /  6.4km/h 72% 0.00in /  0mm 575 W/m2
09:10 72.8 °F /  22.7 °C 59.9 °F /  15.5 °C 30.04in /  1017.2hPa SW 1mph /  1.6km/h 4mph /  6.4km/h 64% 0.00in /  0mm 630 W/m2
09:20 74.3 °F /  23.5 °C 60.9 °F /  16.1 °C 30.04in /  1017.2hPa South 1mph /  1.6km/h 6mph /  9.7km/h 63% 0.00in /  0mm 657 W/m2
09:30 75.2 °F /  24 °C 61.3 °F /  16.3 °C 30.04in /  1017.2hPa ENE 3mph /  4.8km/h 8mph /  12.9km/h 62% 0.00in /  0mm 682 W/m2
09:40 75.9 °F /  24.4 °C 61 °F /  16.1 °C 30.04in /  1017.2hPa ENE 2mph /  3.2km/h 7mph /  11.3km/h 60% 0.00in /  0mm 707 W/m2
10:00 77.2 °F /  25.1 °C 60.8 °F /  16 °C 30.03in /  1016.8hPa ESE 5mph /  8km/h 6mph /  9.7km/h 57% 0.00in /  0mm 753 W/m2
10:10 77.7 °F /  25.4 °C 61.3 °F /  16.3 °C 30.03in /  1016.8hPa South 2mph /  3.2km/h 7mph /  11.3km/h 57% 0.00in /  0mm 774 W/m2
10:20 78.1 °F /  25.6 °C 62.1 °F /  16.7 °C 30.03in /  1016.8hPa SE 2mph /  3.2km/h 6mph /  9.7km/h 58% 0.00in /  0mm 795 W/m2
10:40 80.5 °F /  26.9 °C 62.3 °F /  16.8 °C 30.03in /  1016.8hPa East 2mph /  3.2km/h 8mph /  12.9km/h 54% 0.00in /  0mm 831 W/m2
10:50 81.7 °F /  27.6 °C 62.9 °F /  17.2 °C 30.03in /  1016.8hPa NE 5mph /  8km/h 12mph /  19.3km/h 53% 0.00in /  0mm 89 W/m2
11:00 82.6 °F /  28.1 °C 62.6 °F /  17 °C 30.03in /  1016.8hPa NE 5mph /  8km/h 12mph /  19.3km/h 51% 0.00in /  0mm 733 W/m2
11:20 83.9 °F /  28.8 °C 62.7 °F /  17.1 °C 30.02in /  1016.5hPa North 6mph /  9.7km/h 13mph /  20.9km/h 49% 0.00in /  0mm 501 W/m2
11:30 83.7 °F /  28.7 °C 64.2 °F /  17.9 °C 30.02in /  1016.5hPa NNE 5mph /  8km/h 13mph /  20.9km/h 52% 0.00in /  0mm 899 W/m2
11:40 84.4 °F /  29.1 °C 63.7 °F /  17.6 °C 30.01in /  1016.1hPa NNE 5mph /  8km/h 10mph /  16.1km/h 50% 0.00in /  0mm 908 W/m2
11:50 84.7 °F /  29.3 °C 63.5 °F /  17.5 °C 30.01in /  1016.1hPa NNE 3mph /  4.8km/h 9mph /  14.5km/h 49% 0.00in /  0mm 916 W/m2
12:00 85.3 °F /  29.6 °C 64 °F /  17.8 °C 30.01in /  1016.1hPa ENE 3mph /  4.8km/h 11mph /  17.7km/h 49% 0.00in /  0mm 922 W/m2
12:10 85.7 °F /  29.8 °C 64.4 °F /  18 °C 30.01in /  1016.1hPa North 1mph /  1.6km/h 10mph /  16.1km/h 49% 0.00in /  0mm 927 W/m2
12:20 86.2 °F /  30.1 °C 63.6 °F /  17.6 °C 30.01in /  1016.1hPa North 3mph /  4.8km/h 14mph /  22.5km/h 47% 0.00in /  0mm 930 W/m2
12:30 87.1 °F /  30.6 °C 65 °F /  18.3 °C 30.00in /  1015.8hPa NNE 6mph /  9.7km/h 11mph /  17.7km/h 48% 0.00in /  0mm 931 W/m2
12:40 86.8 °F /  30.4 °C 64.1 °F /  17.8 °C 30.00in /  1015.8hPa NE 2mph /  3.2km/h 13mph /  20.9km/h 47% 0.00in /  0mm 257 W/m2
13:00 87.8 °F /  31 °C 63.2 °F /  17.3 °C 29.99in /  1015.5hPa NNW 2mph /  3.2km/h 8mph /  12.9km/h 44% 0.00in /  0mm 449 W/m2
13:10 88 °F /  31.1 °C 64.6 °F /  18.1 °C 29.99in /  1015.5hPa WNW 2mph /  3.2km/h 10mph /  16.1km/h 46% 0.00in /  0mm 922 W/m2
13:20 87.9 °F /  31.1 °C 63.3 °F /  17.4 °C 29.99in /  1015.5hPa NNE 5mph /  8km/h 10mph /  16.1km/h 44% 0.00in /  0mm 916 W/m2
13:30 88.2 °F /  31.2 °C 63.5 °F /  17.5 °C 29.99in /  1015.5hPa NW 5mph /  8km/h 15mph /  24.1km/h 44% 0.00in /  0mm 908 W/m2
13:40 87.9 °F /  31.1 °C 63.9 °F /  17.7 °C 29.99in /  1015.5hPa North 5mph /  8km/h 9mph /  14.5km/h 45% 0.00in /  0mm 899 W/m2
13:50 88.3 °F /  31.3 °C 63.7 °F /  17.6 °C 29.99in /  1015.5hPa NNW 3mph /  4.8km/h 10mph /  16.1km/h 44% 0.00in /  0mm 648 W/m2
14:00 86.4 °F /  30.2 °C 61.9 °F /  16.6 °C 29.99in /  1015.5hPa NW 5mph /  8km/h 9mph /  14.5km/h 44% 0.00in /  0mm 160 W/m2
14:10 85.6 °F /  29.8 °C 61.9 °F /  16.6 °C 29.99in /  1015.5hPa NNW 3mph /  4.8km/h 9mph /  14.5km/h 45% 0.00in /  0mm 289 W/m2
14:20 86 °F /  30 °C 62.8 °F /  17.1 °C 29.99in /  1015.5hPa North 2mph /  3.2km/h 9mph /  14.5km/h 46% 0.00in /  0mm 239 W/m2
14:30 85.8 °F /  29.9 °C 63.2 °F /  17.3 °C 29.99in /  1015.5hPa NNE 5mph /  8km/h 11mph /  17.7km/h 47% 0.00in /  0mm 488 W/m2
14:40 85.9 °F /  29.9 °C 62.7 °F /  17.1 °C 29.99in /  1015.5hPa North 5mph /  8km/h 8mph /  12.9km/h 46% 0.00in /  0mm 193 W/m2
14:50 85.7 °F /  29.8 °C 61.9 °F /  16.6 °C 29.99in /  1015.5hPa NNW 6mph /  9.7km/h 12mph /  19.3km/h 45% 0.00in /  0mm 219 W/m2
15:00 86.7 °F /  30.4 °C 62.1 °F /  16.7 °C 29.98in /  1015.1hPa North 6mph /  9.7km/h 13mph /  20.9km/h 44% 0.00in /  0mm 295 W/m2
15:10 87.6 °F /  30.9 °C 63.7 °F /  17.6 °C 29.98in /  1015.1hPa NNW 6mph /  9.7km/h 11mph /  17.7km/h 45% 0.00in /  0mm 205 W/m2
15:20 87 °F /  30.6 °C 63.1 °F /  17.3 °C 29.99in /  1015.5hPa NNW 2mph /  3.2km/h 11mph /  17.7km/h 45% 0.00in /  0mm 560 W/m2
15:40 86.3 °F /  30.2 °C 63.7 °F /  17.6 °C 29.99in /  1015.5hPa North 3mph /  4.8km/h 10mph /  16.1km/h 47% 0.00in /  0mm 681 W/m2
15:50 87.6 °F /  30.9 °C 64.9 °F /  18.3 °C 29.98in /  1015.1hPa North 2mph /  3.2km/h 8mph /  12.9km/h 47% 0.00in /  0mm 656 W/m2
16:00 88 °F /  31.1 °C 64.7 °F /  18.2 °C 29.98in /  1015.1hPa NNE 3mph /  4.8km/h 8mph /  12.9km/h 46% 0.00in /  0mm 252 W/m2
16:20 85.6 °F /  29.8 °C 63.1 °F /  17.3 °C 29.98in /  1015.1hPa North 5mph /  8km/h 9mph /  14.5km/h 47% 0.00in /  0mm 164 W/m2
16:30 85.3 °F /  29.6 °C 62.8 °F /  17.1 °C 29.98in /  1015.1hPa North 3mph /  4.8km/h 11mph /  17.7km/h 47% 0.00in /  0mm 274 W/m2
16:40 86.3 °F /  30.2 °C 63.7 °F /  17.6 °C 29.98in /  1015.1hPa North 5mph /  8km/h 11mph /  17.7km/h 47% 0.00in /  0mm 516 W/m2
16:50 87.1 °F /  30.6 °C 63.2 °F /  17.3 °C 29.98in /  1015.1hPa North 2mph /  3.2km/h 13mph /  20.9km/h 45% 0.00in /  0mm 486 W/m2
17:00 87.1 °F /  30.6 °C 63.2 °F /  17.3 °C 29.98in /  1015.1hPa NNW 2mph /  3.2km/h 9mph /  14.5km/h 45% 0.00in /  0mm 455 W/m2
17:10 87.4 °F /  30.8 °C 63.5 °F /  17.5 °C 29.98in /  1015.1hPa North 3mph /  4.8km/h 11mph /  17.7km/h 45% 0.00in /  0mm 425 W/m2
17:20 87.6 °F /  30.9 °C 63 °F /  17.2 °C 29.98in /  1015.1hPa North 5mph /  8km/h 13mph /  20.9km/h 44% 0.00in /  0mm 394 W/m2
17:30 88.3 °F /  31.3 °C 63 °F /  17.2 °C 29.98in /  1015.1hPa North 5mph /  8km/h 9mph /  14.5km/h 43% 0.00in /  0mm 363 W/m2
17:40 88.5 °F /  31.4 °C 63.2 °F /  17.3 °C 29.98in /  1015.1hPa North 6mph /  9.7km/h 12mph /  19.3km/h 43% 0.00in /  0mm 332 W/m2
17:50 88 °F /  31.1 °C 62.7 °F /  17.1 °C 29.98in /  1015.1hPa North 8mph /  12.9km/h 14mph /  22.5km/h 43% 0.00in /  0mm 301 W/m2
18:00 87.4 °F /  30.8 °C 62.8 °F /  17.1 °C 29.99in /  1015.5hPa North 2mph /  3.2km/h 12mph /  19.3km/h 44% 0.00in /  0mm 260 W/m2
18:10 87 °F /  30.6 °C 62.4 °F /  16.9 °C 29.99in /  1015.5hPa North 2mph /  3.2km/h 7mph /  11.3km/h 44% 0.00in /  0mm 90 W/m2
18:30 86.7 °F /  30.4 °C 62.2 °F /  16.8 °C 29.99in /  1015.5hPa North 6mph /  9.7km/h 12mph /  19.3km/h 44% 0.00in /  0mm 165 W/m2
18:40 86.2 °F /  30.1 °C 61.8 °F /  16.6 °C 29.99in /  1015.5hPa North 3mph /  4.8km/h 10mph /  16.1km/h 44% 0.00in /  0mm 60 W/m2
18:50 85.6 °F /  29.8 °C 61.9 °F /  16.6 °C 29.99in /  1015.5hPa North 3mph /  4.8km/h 10mph /  16.1km/h 45% 0.00in /  0mm 97 W/m2
19:00 85.3 °F /  29.6 °C 62.2 °F /  16.8 °C 29.99in /  1015.5hPa NNW 3mph /  4.8km/h 8mph /  12.9km/h 46% 0.00in /  0mm 74 W/m2
19:10 84.4 °F /  29.1 °C 62 °F /  16.7 °C 30.00in /  1015.8hPa NNW 3mph /  4.8km/h 9mph /  14.5km/h 47% 0.00in /  0mm 35 W/m2
19:20 83.7 °F /  28.7 °C 61.9 °F /  16.6 °C 30.00in /  1015.8hPa NNW 3mph /  4.8km/h 8mph /  12.9km/h 48% 0.00in /  0mm 36 W/m2
19:30 82.8 °F /  28.2 °C 61.1 °F /  16.2 °C 30.00in /  1015.8hPa NW 2mph /  3.2km/h 7mph /  11.3km/h 48% 0.00in /  0mm 24 W/m2
19:40 82.1 °F /  27.8 °C 61 °F /  16.1 °C 30.00in /  1015.8hPa WNW 1mph /  1.6km/h 4mph /  6.4km/h 49% 0.00in /  0mm 13 W/m2
19:50 81.3 °F /  27.4 °C 60.9 °F /  16.1 °C 30.00in /  1015.8hPa WNW 2mph /  3.2km/h 5mph /  8km/h 50% 0.00in /  0mm 4 W/m2
20:10 79.6 °F /  26.4 °C 61.5 °F /  16.4 °C 30.01in /  1016.1hPa WSW 1mph /  1.6km/h 3mph /  4.8km/h 54% 0.00in /  0mm 0 W/m2
20:20 78.5 °F /  25.8 °C 62 °F /  16.7 °C 30.01in /  1016.1hPa SSW 1mph /  1.6km/h 2mph /  3.2km/h 57% 0.00in /  0mm 0 W/m2
20:30 76.7 °F /  24.8 °C 61.3 °F /  16.3 °C 30.01in /  1016.1hPa SSE 3mph /  4.8km/h 5mph /  8km/h 59% 0.00in /  0mm 0 W/m2
20:40 75.9 °F /  24.4 °C 61 °F /  16.1 °C 30.02in /  1016.5hPa South 2mph /  3.2km/h 5mph /  8km/h 60% 0.00in /  0mm 0 W/m2
20:50 75.2 °F /  24 °C 61.3 °F /  16.3 °C 30.02in /  1016.5hPa SW 1mph /  1.6km/h 4mph /  6.4km/h 62% 0.00in /  0mm 0 W/m2
21:00 74.5 °F /  23.6 °C 61.1 °F /  16.2 °C 30.02in /  1016.5hPa WSW 1mph /  1.6km/h 2mph /  3.2km/h 63% 0.00in /  0mm 0 W/m2
21:10 73.8 °F /  23.2 °C 61.3 °F /  16.3 °C 30.03in /  1016.8hPa SW 1mph /  1.6km/h 2mph /  3.2km/h 65% 0.00in /  0mm 0 W/m2
21:20 73.1 °F /  22.8 °C 60.6 °F /  15.9 °C 30.03in /  1016.8hPa SW 1mph /  1.6km/h 2mph /  3.2km/h 65% 0.00in /  0mm 0 W/m2
Knjazevac, Serbia
Compliments of Weather Underground - 2 mb